createdAt,value
2019-03-26T00:00:24.013Z,49.55
2019-03-26T00:00:55.322Z,49.85
2019-03-26T00:01:26.637Z,50.27
2019-03-26T00:01:57.945Z,51.01
2019-03-26T00:02:29.298Z,51.16
2019-03-26T00:03:00.587Z,51.30
2019-03-26T00:03:31.893Z,51.49
2019-03-26T00:04:06.084Z,51.54
2019-03-26T00:04:36.210Z,52.06
2019-03-26T00:05:07.507Z,52.05
2019-03-26T00:05:38.843Z,52.01
2019-03-26T00:06:10.105Z,52.11
2019-03-26T00:06:41.399Z,53.38
2019-03-26T00:07:12.716Z,55.05
2019-03-26T00:07:44.079Z,54.60
2019-03-26T00:08:15.394Z,54.64
2019-03-26T00:08:46.710Z,54.56
2019-03-26T00:09:18.062Z,55.13
2019-03-26T00:09:49.459Z,55.83
2019-03-26T00:10:20.786Z,56.15
2019-03-26T00:10:52.124Z,55.37
2019-03-26T00:11:23.431Z,55.32
2019-03-26T00:11:54.789Z,54.88
2019-03-26T00:12:26.100Z,54.48
2019-03-26T00:12:57.403Z,54.13
2019-03-26T00:13:28.711Z,54.16
2019-03-26T00:14:00.005Z,54.19
2019-03-26T00:14:31.325Z,54.08
2019-03-26T00:15:02.685Z,54.13
2019-03-26T00:15:33.998Z,53.62
2019-03-26T00:16:05.303Z,52.93
2019-03-26T00:16:36.621Z,52.11
2019-03-26T00:17:07.911Z,51.63
2019-03-26T00:17:39.268Z,51.32
2019-03-26T00:18:10.607Z,51.19
2019-03-26T00:18:41.913Z,51.37
2019-03-26T00:19:13.248Z,51.88
2019-03-26T00:19:44.584Z,51.95
2019-03-26T00:20:15.892Z,52.07
2019-03-26T00:20:47.204Z,52.44
2019-03-26T00:21:18.491Z,52.64
2019-03-26T00:21:49.804Z,52.77
2019-03-26T00:22:21.105Z,53.00
2019-03-26T00:22:52.476Z,53.55
2019-03-26T00:23:23.778Z,54.11
2019-03-26T00:23:55.111Z,54.69
2019-03-26T00:24:26.410Z,55.35
2019-03-26T00:24:57.698Z,56.14
2019-03-26T00:25:29.020Z,56.79
2019-03-26T00:26:00.333Z,57.32
2019-03-26T00:26:31.650Z,56.81
2019-03-26T00:27:02.953Z,56.49
2019-03-26T00:27:34.310Z,56.53
2019-03-26T00:28:05.634Z,56.76
2019-03-26T00:28:36.944Z,56.95
2019-03-26T00:29:08.254Z,57.19
2019-03-26T00:29:39.554Z,57.25
2019-03-26T00:30:10.869Z,57.33
2019-03-26T00:30:42.160Z,57.33
2019-03-26T00:31:13.458Z,57.44
2019-03-26T00:31:44.765Z,57.52
2019-03-26T00:32:16.058Z,57.49
2019-03-26T00:32:47.419Z,57.68
2019-03-26T00:33:18.726Z,57.80
2019-03-26T00:33:50.134Z,57.99
2019-03-26T00:34:21.448Z,57.94
2019-03-26T00:34:52.752Z,58.02
2019-03-26T00:35:24.068Z,58.01
2019-03-26T00:35:55.378Z,57.99
2019-03-26T00:36:26.709Z,57.97
2019-03-26T00:36:58.017Z,58.08
2019-03-26T00:37:29.308Z,58.12
2019-03-26T00:38:00.665Z,58.15
2019-03-26T00:38:32.015Z,58.23
2019-03-26T00:39:03.345Z,58.38
2019-03-26T00:39:34.676Z,58.48
2019-03-26T00:40:05.964Z,58.51
2019-03-26T00:40:40.089Z,58.69
2019-03-26T00:41:10.300Z,58.67
2019-03-26T00:41:41.641Z,58.62
2019-03-26T00:42:12.957Z,58.59
2019-03-26T00:42:44.252Z,58.57
2019-03-26T00:43:15.552Z,58.08
2019-03-26T00:43:46.937Z,56.71
2019-03-26T00:44:18.256Z,55.97
2019-03-26T00:44:49.546Z,56.10
2019-03-26T00:45:20.901Z,55.80
2019-03-26T00:45:52.196Z,56.10
2019-03-26T00:46:23.519Z,56.81
2019-03-26T00:46:54.815Z,57.20
2019-03-26T00:47:26.119Z,57.62
2019-03-26T00:47:57.489Z,57.86
2019-03-26T00:48:28.789Z,58.28
2019-03-26T00:49:00.088Z,58.64
2019-03-26T00:49:31.383Z,59.27
2019-03-26T00:50:02.703Z,59.31
2019-03-26T00:50:33.999Z,59.11
2019-03-26T00:51:05.292Z,59.10
2019-03-26T00:51:36.634Z,59.21
2019-03-26T00:52:07.954Z,59.46
2019-03-26T00:52:39.271Z,59.52
2019-03-26T00:53:10.592Z,59.47
2019-03-26T00:53:41.886Z,59.71
2019-03-26T00:54:13.184Z,59.86
2019-03-26T00:54:44.497Z,59.76
2019-03-26T00:55:22.371Z,59.11
2019-03-26T00:55:48.826Z,58.63
2019-03-26T00:56:20.142Z,58.46
2019-03-26T00:56:51.478Z,58.26
2019-03-26T00:57:22.775Z,57.94
2019-03-26T00:57:54.075Z,57.79
2019-03-26T00:58:25.430Z,58.16
2019-03-26T00:58:56.758Z,58.27
2019-03-26T00:59:28.107Z,58.49
2019-03-26T00:59:59.455Z,58.68
2019-03-26T01:00:30.777Z,58.83
2019-03-26T01:01:02.071Z,58.47
2019-03-26T01:01:33.389Z,59.05
2019-03-26T01:02:04.770Z,59.79
2019-03-26T01:02:36.078Z,59.92
2019-03-26T01:03:07.372Z,59.28
2019-03-26T01:03:38.671Z,58.76
2019-03-26T01:04:09.969Z,58.50
2019-03-26T01:04:41.269Z,58.84
2019-03-26T01:05:12.595Z,58.95
2019-03-26T01:05:43.926Z,59.06
2019-03-26T01:06:15.312Z,59.11
2019-03-26T01:06:46.624Z,59.34
2019-03-26T01:07:17.931Z,59.51
2019-03-26T01:07:49.218Z,59.47
2019-03-26T01:08:20.519Z,58.72
2019-03-26T01:08:51.864Z,58.33
2019-03-26T01:09:23.189Z,58.36
2019-03-26T01:09:54.527Z,58.39
2019-03-26T01:10:25.821Z,58.62
2019-03-26T01:10:57.124Z,58.74
2019-03-26T01:11:28.429Z,58.58
2019-03-26T01:11:59.714Z,58.52
2019-03-26T01:12:31.295Z,58.57
2019-03-26T01:13:02.826Z,58.72
2019-03-26T01:13:34.195Z,58.93
2019-03-26T01:14:05.541Z,59.12
2019-03-26T01:14:36.851Z,59.18
2019-03-26T01:15:08.158Z,59.46
2019-03-26T01:15:39.482Z,59.51
2019-03-26T01:16:10.786Z,59.68
2019-03-26T01:16:42.093Z,59.77
2019-03-26T01:17:13.408Z,59.81
2019-03-26T01:17:44.747Z,60.06
2019-03-26T01:18:16.133Z,60.12
2019-03-26T01:18:47.437Z,60.33
2019-03-26T01:19:18.730Z,60.76
2019-03-26T01:19:50.023Z,60.78
2019-03-26T01:20:21.360Z,60.83
2019-03-26T01:20:52.659Z,61.13
2019-03-26T01:21:24.006Z,61.15
2019-03-26T01:21:55.300Z,61.08
2019-03-26T01:22:26.587Z,61.08
2019-03-26T01:22:57.878Z,61.12
2019-03-26T01:23:29.247Z,61.17
2019-03-26T01:24:00.555Z,61.32
2019-03-26T01:24:31.871Z,61.44
2019-03-26T01:25:03.177Z,61.61
2019-03-26T01:25:34.563Z,61.68
2019-03-26T01:26:05.911Z,61.78
2019-03-26T01:26:37.206Z,61.92
2019-03-26T01:27:08.509Z,62.16
2019-03-26T01:27:39.815Z,62.64
2019-03-26T01:28:11.151Z,62.93
2019-03-26T01:28:42.457Z,63.07
2019-03-26T01:29:13.762Z,63.13
2019-03-26T01:29:45.118Z,63.30
2019-03-26T01:30:16.405Z,63.42
2019-03-26T01:30:47.790Z,63.50
2019-03-26T01:31:19.088Z,63.77
2019-03-26T01:31:50.390Z,63.80
2019-03-26T01:32:21.709Z,63.76
2019-03-26T01:32:53.039Z,63.82
2019-03-26T01:33:24.352Z,63.80
2019-03-26T01:33:55.661Z,63.70
2019-03-26T01:34:27.008Z,63.61
2019-03-26T01:34:58.322Z,63.60
2019-03-26T01:35:29.625Z,63.57
2019-03-26T01:36:00.981Z,63.72
2019-03-26T01:36:32.275Z,63.71
2019-03-26T01:37:03.562Z,63.74
2019-03-26T01:37:34.855Z,63.84
2019-03-26T01:38:06.184Z,63.93
2019-03-26T01:38:37.542Z,63.97
2019-03-26T01:39:08.850Z,64.22
2019-03-26T01:39:40.161Z,63.94
2019-03-26T01:40:11.453Z,63.75
2019-03-26T01:40:42.757Z,63.53
2019-03-26T01:41:14.070Z,63.40
2019-03-26T01:41:45.350Z,63.47
2019-03-26T01:42:17.778Z,63.55
2019-03-26T01:42:49.081Z,63.47
2019-03-26T01:43:20.427Z,63.45
2019-03-26T01:43:51.728Z,63.47
2019-03-26T01:44:23.027Z,63.49
2019-03-26T01:44:54.344Z,63.44
2019-03-26T01:45:25.643Z,63.59
2019-03-26T01:45:56.973Z,63.81
2019-03-26T01:46:28.277Z,63.91
2019-03-26T01:46:59.585Z,64.08
2019-03-26T01:47:30.903Z,64.17
2019-03-26T01:48:02.204Z,64.17
2019-03-26T01:48:33.545Z,64.18
2019-03-26T01:49:04.893Z,64.54
2019-03-26T01:49:36.229Z,64.68
2019-03-26T01:50:07.520Z,64.84
2019-03-26T01:50:38.816Z,65.04
2019-03-26T01:51:10.129Z,65.15
2019-03-26T01:51:41.430Z,65.34
2019-03-26T01:52:12.744Z,65.46
2019-03-26T01:52:44.061Z,65.73
2019-03-26T01:53:15.367Z,65.97
2019-03-26T01:53:46.737Z,65.96
2019-03-26T01:54:18.041Z,66.05
2019-03-26T01:54:49.352Z,66.35
2019-03-26T01:55:20.708Z,66.56
2019-03-26T01:55:52.015Z,66.51
2019-03-26T01:56:23.322Z,66.35
2019-03-26T01:56:54.621Z,66.34
2019-03-26T01:57:25.917Z,66.45
2019-03-26T01:57:57.210Z,66.69
2019-03-26T01:58:28.503Z,66.91
2019-03-26T01:58:59.846Z,67.01
2019-03-26T01:59:31.152Z,67.10
2019-03-26T02:00:02.484Z,67.08
2019-03-26T02:00:33.785Z,67.08
2019-03-26T02:01:05.095Z,66.93
2019-03-26T02:01:36.418Z,66.82
2019-03-26T02:02:07.716Z,66.70
2019-03-26T02:02:39.009Z,66.67
2019-03-26T02:03:10.328Z,66.55
2019-03-26T02:03:41.685Z,66.30
2019-03-26T02:04:12.986Z,66.15
2019-03-26T02:04:44.230Z,66.20
2019-03-26T02:05:15.488Z,66.22
2019-03-26T02:05:46.764Z,66.25
2019-03-26T02:06:18.013Z,66.17
2019-03-26T02:06:49.328Z,66.15
2019-03-26T02:07:20.580Z,66.23
2019-03-26T02:07:51.816Z,66.28
2019-03-26T02:08:23.062Z,66.36
2019-03-26T02:08:54.338Z,66.43
2019-03-26T02:09:25.630Z,66.50
2019-03-26T02:09:56.939Z,66.48
2019-03-26T02:10:28.217Z,66.58
2019-03-26T02:10:59.459Z,66.68
2019-03-26T02:11:30.707Z,66.69
2019-03-26T02:12:02.152Z,66.53
2019-03-26T02:12:33.410Z,66.39
2019-03-26T02:13:04.645Z,66.02
2019-03-26T02:13:35.810Z,65.87
2019-03-26T02:14:06.972Z,65.76
2019-03-26T02:14:38.178Z,65.88
2019-03-26T02:15:09.353Z,66.01
2019-03-26T02:15:40.514Z,66.13
2019-03-26T02:16:11.668Z,66.36
2019-03-26T02:16:42.844Z,66.54
2019-03-26T02:17:13.988Z,66.70
2019-03-26T02:17:45.196Z,67.01
2019-03-26T02:18:16.355Z,67.05
2019-03-26T02:18:47.529Z,66.95
2019-03-26T02:19:18.701Z,66.83
2019-03-26T02:19:49.856Z,66.35
2019-03-26T02:20:21.029Z,66.11
2019-03-26T02:20:52.187Z,65.80
2019-03-26T02:21:23.443Z,65.38
2019-03-26T02:21:54.653Z,65.13
2019-03-26T02:22:25.850Z,64.92
2019-03-26T02:22:57.051Z,64.89
2019-03-26T02:23:28.255Z,64.71
2019-03-26T02:23:59.462Z,64.42
2019-03-26T02:24:31.711Z,64.31
2019-03-26T02:25:03.179Z,64.39
2019-03-26T02:25:34.379Z,64.39
2019-03-26T02:26:05.627Z,64.21
2019-03-26T02:26:36.850Z,64.15
2019-03-26T02:27:08.070Z,63.95
2019-03-26T02:27:39.276Z,64.05
2019-03-26T02:28:10.481Z,64.01
2019-03-26T02:28:41.694Z,64.08
2019-03-26T02:29:12.908Z,64.13
2019-03-26T02:29:44.107Z,64.05
2019-03-26T02:30:15.350Z,64.16
2019-03-26T02:30:46.593Z,64.00
2019-03-26T02:31:17.791Z,63.90
2019-03-26T02:31:49.031Z,63.92
2019-03-26T02:32:20.241Z,64.04
2019-03-26T02:32:51.444Z,63.93
2019-03-26T02:33:22.779Z,63.87
2019-03-26T02:33:53.937Z,63.80
2019-03-26T02:34:25.134Z,63.81
2019-03-26T02:34:56.333Z,63.70
2019-03-26T02:35:27.559Z,63.69
2019-03-26T02:35:58.786Z,63.69
2019-03-26T02:36:30.031Z,63.66
2019-03-26T02:37:01.237Z,63.56
2019-03-26T02:37:32.452Z,63.77
2019-03-26T02:38:03.649Z,63.73
2019-03-26T02:38:34.871Z,63.67
2019-03-26T02:39:06.128Z,63.63
2019-03-26T02:39:37.362Z,63.21
2019-03-26T02:40:08.624Z,63.04
2019-03-26T02:40:39.817Z,62.91
2019-03-26T02:41:11.023Z,62.92
2019-03-26T02:41:42.227Z,62.41
2019-03-26T02:42:13.451Z,62.21
2019-03-26T02:42:44.647Z,62.12
2019-03-26T02:43:15.867Z,62.10
2019-03-26T02:43:47.115Z,62.19
2019-03-26T02:44:18.334Z,62.07
2019-03-26T02:44:49.533Z,61.71
2019-03-26T02:45:20.758Z,61.67
2019-03-26T02:45:51.956Z,61.85
2019-03-26T02:46:23.213Z,61.87
2019-03-26T02:46:54.389Z,61.76
2019-03-26T02:47:25.606Z,61.52
2019-03-26T02:47:56.812Z,61.70
2019-03-26T02:48:28.076Z,61.52
2019-03-26T02:48:59.316Z,61.15
2019-03-26T02:49:30.516Z,61.03
2019-03-26T02:50:01.724Z,61.03
2019-03-26T02:50:32.919Z,60.98
2019-03-26T02:51:04.185Z,60.63
2019-03-26T02:51:35.409Z,60.51
2019-03-26T02:52:06.633Z,60.42
2019-03-26T02:52:37.839Z,60.28
2019-03-26T02:53:09.152Z,60.33
2019-03-26T02:53:40.531Z,60.27
2019-03-26T02:54:11.738Z,60.20
2019-03-26T02:54:42.953Z,60.27
2019-03-26T02:55:14.153Z,60.36
2019-03-26T02:55:45.371Z,60.60
2019-03-26T02:56:16.929Z,60.76
2019-03-26T02:56:48.144Z,60.89
2019-03-26T02:57:19.360Z,60.98
2019-03-26T02:57:50.581Z,61.10
2019-03-26T02:58:22.163Z,61.29
2019-03-26T02:58:53.423Z,61.39
2019-03-26T02:59:24.629Z,61.50
2019-03-26T02:59:55.853Z,61.58
2019-03-26T03:00:27.069Z,61.68
2019-03-26T03:00:58.279Z,61.74
2019-03-26T03:01:29.501Z,61.84
2019-03-26T03:02:00.714Z,61.99
2019-03-26T03:02:31.908Z,62.26
2019-03-26T03:03:03.119Z,62.31
2019-03-26T03:03:34.371Z,62.27
2019-03-26T03:04:05.614Z,61.98
2019-03-26T03:04:37.781Z,62.07
2019-03-26T03:05:08.984Z,62.02
2019-03-26T03:05:40.185Z,61.85
2019-03-26T03:06:11.416Z,61.72
2019-03-26T03:06:42.609Z,61.75
2019-03-26T03:07:13.813Z,61.47
2019-03-26T03:07:45.026Z,61.34
2019-03-26T03:08:16.225Z,61.35
2019-03-26T03:08:47.442Z,61.41
2019-03-26T03:09:18.682Z,61.33
2019-03-26T03:09:49.907Z,61.05
2019-03-26T03:10:21.113Z,61.10
2019-03-26T03:10:52.378Z,61.14
2019-03-26T03:11:23.581Z,61.13
2019-03-26T03:11:54.835Z,61.09
2019-03-26T03:12:26.037Z,61.13
2019-03-26T03:12:57.246Z,61.12
2019-03-26T03:13:28.498Z,61.20
2019-03-26T03:13:59.714Z,61.29
2019-03-26T03:14:30.917Z,61.33
2019-03-26T03:15:02.113Z,61.35
2019-03-26T03:15:33.359Z,61.26
2019-03-26T03:16:04.572Z,61.33
2019-03-26T03:16:35.768Z,61.33
2019-03-26T03:17:07.015Z,61.28
2019-03-26T03:17:38.234Z,61.33
2019-03-26T03:18:09.455Z,61.30
2019-03-26T03:18:40.671Z,61.35
2019-03-26T03:19:15.584Z,61.49
2019-03-26T03:19:44.809Z,61.62
2019-03-26T03:20:16.046Z,61.74
2019-03-26T03:20:47.246Z,61.84
2019-03-26T03:21:18.444Z,61.87
2019-03-26T03:21:49.650Z,62.03
2019-03-26T03:22:20.842Z,62.12
2019-03-26T03:22:52.080Z,62.13
2019-03-26T03:23:23.285Z,62.17
2019-03-26T03:23:54.504Z,62.28
2019-03-26T03:24:25.701Z,62.36
2019-03-26T03:24:56.904Z,62.34
2019-03-26T03:25:28.111Z,62.51
2019-03-26T03:25:59.313Z,62.39
2019-03-26T03:26:30.542Z,62.36
2019-03-26T03:27:01.741Z,62.39
2019-03-26T03:27:32.954Z,62.46
2019-03-26T03:28:04.211Z,62.44
2019-03-26T03:28:35.446Z,62.36
2019-03-26T03:29:06.716Z,62.46
2019-03-26T03:29:37.912Z,62.62
2019-03-26T03:30:09.130Z,62.79
2019-03-26T03:30:40.330Z,62.85
2019-03-26T03:31:11.553Z,62.69
2019-03-26T03:31:42.791Z,62.85
2019-03-26T03:32:13.983Z,62.88
2019-03-26T03:32:45.181Z,62.90
2019-03-26T03:33:16.392Z,62.89
2019-03-26T03:33:47.614Z,63.08
2019-03-26T03:34:18.812Z,63.26
2019-03-26T03:34:50.026Z,63.47
2019-03-26T03:35:21.223Z,63.61
2019-03-26T03:35:53.539Z,63.74
2019-03-26T03:36:24.747Z,63.78
2019-03-26T03:36:56.896Z,63.70
2019-03-26T03:37:28.106Z,63.49
2019-03-26T03:37:59.374Z,63.63
2019-03-26T03:38:30.551Z,63.73
2019-03-26T03:39:01.778Z,63.89
2019-03-26T03:39:32.979Z,63.97
2019-03-26T03:40:04.194Z,64.09
2019-03-26T03:40:35.430Z,64.15
2019-03-26T03:41:06.647Z,64.16
2019-03-26T03:41:37.856Z,64.20
2019-03-26T03:42:09.060Z,64.18
2019-03-26T03:42:40.278Z,64.17
2019-03-26T03:43:11.483Z,64.29
2019-03-26T03:43:42.751Z,64.33
2019-03-26T03:44:13.920Z,64.26
2019-03-26T03:44:45.119Z,64.25
2019-03-26T03:45:16.331Z,64.23
2019-03-26T03:45:47.553Z,64.21
2019-03-26T03:46:18.766Z,64.19
2019-03-26T03:46:49.974Z,64.16
2019-03-26T03:47:21.233Z,64.14
2019-03-26T03:47:52.425Z,64.20
2019-03-26T03:48:23.626Z,64.20
2019-03-26T03:48:54.834Z,64.20
2019-03-26T03:49:26.053Z,64.21
2019-03-26T03:49:57.237Z,64.19
2019-03-26T03:50:28.484Z,64.08
2019-03-26T03:50:59.681Z,63.92
2019-03-26T03:51:30.872Z,63.91
2019-03-26T03:52:02.258Z,63.94
2019-03-26T03:52:33.493Z,63.87
2019-03-26T03:53:04.720Z,63.94
2019-03-26T03:53:35.933Z,63.96
2019-03-26T03:54:07.194Z,63.86
2019-03-26T03:54:38.451Z,63.76
2019-03-26T03:55:09.651Z,63.72
2019-03-26T03:55:40.872Z,63.68
2019-03-26T03:56:12.100Z,63.69
2019-03-26T03:56:43.321Z,63.61
2019-03-26T03:57:14.537Z,63.57
2019-03-26T03:57:45.726Z,63.52
2019-03-26T03:58:16.933Z,63.48
2019-03-26T03:58:48.161Z,63.50
2019-03-26T03:59:19.356Z,63.55
2019-03-26T03:59:50.614Z,63.52
2019-03-26T04:00:21.822Z,63.42
2019-03-26T04:00:53.015Z,63.46
2019-03-26T04:01:24.339Z,63.48
2019-03-26T04:01:55.541Z,63.47
2019-03-26T04:02:26.749Z,63.47
2019-03-26T04:02:57.957Z,63.46
2019-03-26T04:03:29.160Z,63.37
2019-03-26T04:04:00.382Z,63.36
2019-03-26T04:04:31.971Z,63.18
2019-03-26T04:05:03.198Z,63.16
2019-03-26T04:05:34.403Z,63.33
2019-03-26T04:06:09.341Z,63.18
2019-03-26T04:06:38.605Z,63.19
2019-03-26T04:07:09.832Z,63.31
2019-03-26T04:07:41.040Z,63.35
2019-03-26T04:08:12.248Z,63.60
2019-03-26T04:08:43.447Z,63.72
2019-03-26T04:09:14.648Z,63.73
2019-03-26T04:09:45.854Z,63.75
2019-03-26T04:10:17.054Z,63.86
2019-03-26T04:10:48.256Z,63.80
2019-03-26T04:11:19.524Z,63.74
2019-03-26T04:11:50.721Z,63.68
2019-03-26T04:12:21.931Z,63.56
2019-03-26T04:12:53.137Z,63.58
2019-03-26T04:13:24.341Z,63.73
2019-03-26T04:13:55.563Z,63.85
2019-03-26T04:14:26.762Z,63.85
2019-03-26T04:14:57.974Z,64.01
2019-03-26T04:15:29.182Z,64.15
2019-03-26T04:16:00.432Z,64.30
2019-03-26T04:16:31.649Z,64.60
2019-03-26T04:17:02.853Z,64.75
2019-03-26T04:17:34.076Z,64.76
2019-03-26T04:18:05.313Z,65.00
2019-03-26T04:18:36.484Z,65.23
2019-03-26T04:19:07.700Z,65.23
2019-03-26T04:19:38.898Z,65.36
2019-03-26T04:20:10.105Z,65.44
2019-03-26T04:20:41.321Z,65.50
2019-03-26T04:21:12.525Z,65.57
2019-03-26T04:21:43.746Z,65.68
2019-03-26T04:22:15.003Z,65.70
2019-03-26T04:22:46.200Z,65.79
2019-03-26T04:23:17.402Z,65.73
2019-03-26T04:23:48.607Z,65.78
2019-03-26T04:24:19.811Z,65.87
2019-03-26T04:24:51.016Z,65.90
2019-03-26T04:25:22.233Z,65.93
2019-03-26T04:25:53.438Z,65.85
2019-03-26T04:26:24.650Z,65.80
2019-03-26T04:26:55.900Z,65.83
2019-03-26T04:27:27.109Z,65.94
2019-03-26T04:27:58.324Z,65.86
2019-03-26T04:28:29.539Z,65.82
2019-03-26T04:29:00.835Z,65.83
2019-03-26T04:29:32.012Z,65.74
2019-03-26T04:30:03.222Z,65.60
2019-03-26T04:30:34.412Z,65.53
2019-03-26T04:31:05.619Z,65.24
2019-03-26T04:31:36.845Z,65.01
2019-03-26T04:32:08.096Z,64.73
2019-03-26T04:32:39.315Z,64.58
2019-03-26T04:33:10.518Z,64.31
2019-03-26T04:33:41.721Z,64.22
2019-03-26T04:34:12.934Z,64.03
2019-03-26T04:34:44.139Z,63.77
2019-03-26T04:35:15.175Z,63.66
2019-03-26T04:35:46.370Z,63.45
2019-03-26T04:36:25.415Z,63.35
2019-03-26T04:36:50.560Z,63.26
2019-03-26T04:37:21.771Z,62.92
2019-03-26T04:37:52.964Z,62.99
2019-03-26T04:38:24.214Z,62.92
2019-03-26T04:38:55.407Z,62.73
2019-03-26T04:39:26.612Z,62.23
2019-03-26T04:39:57.815Z,62.02
2019-03-26T04:40:29.035Z,61.75
2019-03-26T04:41:00.224Z,61.62
2019-03-26T04:41:31.485Z,61.30
2019-03-26T04:42:02.706Z,61.05
2019-03-26T04:42:33.912Z,60.85
2019-03-26T04:43:05.150Z,60.32
2019-03-26T04:43:36.360Z,60.13
2019-03-26T04:44:07.577Z,59.63
2019-03-26T04:44:38.779Z,59.52
2019-03-26T04:45:10.018Z,59.25
2019-03-26T04:45:41.209Z,59.25
2019-03-26T04:46:12.436Z,58.99
2019-03-26T04:46:43.664Z,58.80
2019-03-26T04:47:14.868Z,58.64
2019-03-26T04:47:46.063Z,58.25
2019-03-26T04:48:17.341Z,58.00
2019-03-26T04:48:48.607Z,57.86
2019-03-26T04:49:19.816Z,57.77
2019-03-26T04:49:51.093Z,57.42
2019-03-26T04:50:22.293Z,57.21
2019-03-26T04:50:53.510Z,56.95
2019-03-26T04:51:24.768Z,56.62
2019-03-26T04:51:55.972Z,56.53
2019-03-26T04:52:27.190Z,56.11
2019-03-26T04:52:58.396Z,56.03
2019-03-26T04:53:29.649Z,55.72
2019-03-26T04:54:00.901Z,55.63
2019-03-26T04:54:32.091Z,55.51
2019-03-26T04:55:03.287Z,55.38
2019-03-26T04:55:34.514Z,55.05
2019-03-26T04:56:05.724Z,55.11
2019-03-26T04:56:36.973Z,54.86
2019-03-26T04:57:08.167Z,54.72
2019-03-26T04:57:39.372Z,54.55
2019-03-26T04:58:10.615Z,54.45
2019-03-26T04:58:43.963Z,54.31
2019-03-26T04:59:14.776Z,53.95
2019-03-26T04:59:45.974Z,53.89
2019-03-26T05:00:17.181Z,53.67
2019-03-26T05:00:48.405Z,53.46
2019-03-26T05:01:19.608Z,53.31
2019-03-26T05:01:50.818Z,53.13
2019-03-26T05:02:22.034Z,53.15
2019-03-26T05:02:53.291Z,53.27
2019-03-26T05:03:24.489Z,53.40
2019-03-26T05:03:55.705Z,53.31
2019-03-26T05:04:26.905Z,52.92
2019-03-26T05:04:58.108Z,52.96
2019-03-26T05:05:29.316Z,52.83
2019-03-26T05:06:00.519Z,52.54
2019-03-26T05:06:37.967Z,52.24
2019-03-26T05:07:04.686Z,52.00
2019-03-26T05:07:35.892Z,51.79
2019-03-26T05:08:07.130Z,51.58
2019-03-26T05:08:38.376Z,51.38
2019-03-26T05:09:09.582Z,51.18
2019-03-26T05:09:40.788Z,51.37
2019-03-26T05:10:11.998Z,51.64
2019-03-26T05:10:43.203Z,51.43
2019-03-26T05:11:14.402Z,51.31
2019-03-26T05:11:45.614Z,51.67
2019-03-26T05:12:16.826Z,51.24
2019-03-26T05:12:48.027Z,50.99
2019-03-26T05:13:19.278Z,51.01
2019-03-26T05:13:50.546Z,50.76
2019-03-26T05:14:21.756Z,50.84
2019-03-26T05:14:52.954Z,50.69
2019-03-26T05:15:24.205Z,50.74
2019-03-26T05:15:55.438Z,50.90
2019-03-26T05:16:26.634Z,51.18
2019-03-26T05:16:57.839Z,51.39
2019-03-26T05:17:29.041Z,51.87
2019-03-26T05:18:00.257Z,52.95
2019-03-26T05:18:31.482Z,53.47
2019-03-26T05:19:02.681Z,53.12
2019-03-26T05:19:33.890Z,52.71
2019-03-26T05:20:05.095Z,53.10
2019-03-26T05:20:36.435Z,53.55
2019-03-26T05:21:07.628Z,53.24
2019-03-26T05:21:38.822Z,53.91
2019-03-26T05:22:23.266Z,54.11
2019-03-26T05:22:43.142Z,54.08
2019-03-26T05:23:14.387Z,54.32
2019-03-26T05:23:45.622Z,54.35
2019-03-26T05:24:16.863Z,54.91
2019-03-26T05:24:48.063Z,54.78
2019-03-26T05:25:19.315Z,54.36
2019-03-26T05:25:50.529Z,54.50
2019-03-26T05:26:21.730Z,54.89
2019-03-26T05:26:52.940Z,55.50
2019-03-26T05:27:24.147Z,55.70
2019-03-26T05:27:55.417Z,56.45
2019-03-26T05:28:26.615Z,56.17
2019-03-26T05:28:57.870Z,55.60
2019-03-26T05:29:29.065Z,55.62
2019-03-26T05:30:00.395Z,55.89
2019-03-26T05:30:33.164Z,56.41
2019-03-26T05:31:04.655Z,56.19
2019-03-26T05:31:35.860Z,56.21
2019-03-26T05:32:07.057Z,55.91
2019-03-26T05:32:38.353Z,56.08
2019-03-26T05:33:09.598Z,55.91
2019-03-26T05:33:40.807Z,56.04
2019-03-26T05:34:12.017Z,56.20
2019-03-26T05:34:43.208Z,57.08
2019-03-26T05:35:14.557Z,56.99
2019-03-26T05:35:45.779Z,57.42
2019-03-26T05:36:17.007Z,57.85
2019-03-26T05:36:51.544Z,58.14
2019-03-26T05:37:21.186Z,57.44
2019-03-26T05:37:52.412Z,57.27
2019-03-26T05:38:23.617Z,57.14
2019-03-26T05:38:54.823Z,56.38
2019-03-26T05:39:26.051Z,56.54
2019-03-26T05:39:57.287Z,56.65
2019-03-26T05:40:28.502Z,56.63
2019-03-26T05:40:59.706Z,56.51
2019-03-26T05:41:30.954Z,56.57
2019-03-26T05:42:02.157Z,56.72
2019-03-26T05:42:33.359Z,56.84
2019-03-26T05:43:04.566Z,57.03
2019-03-26T05:43:35.808Z,57.10
2019-03-26T05:44:07.021Z,57.55
2019-03-26T05:44:38.232Z,57.47
2019-03-26T05:45:09.436Z,57.64
2019-03-26T05:45:40.663Z,57.22
2019-03-26T05:46:11.863Z,57.13
2019-03-26T05:46:43.065Z,57.02
2019-03-26T05:47:14.267Z,56.92
2019-03-26T05:47:45.478Z,56.67
2019-03-26T05:48:16.680Z,56.73
2019-03-26T05:48:47.930Z,56.59
2019-03-26T05:49:19.138Z,56.59
2019-03-26T05:49:50.351Z,56.71
2019-03-26T05:50:21.555Z,56.91
2019-03-26T05:50:52.757Z,56.77
2019-03-26T05:51:23.960Z,56.73
2019-03-26T05:51:55.163Z,57.10
2019-03-26T05:52:26.404Z,57.03
2019-03-26T05:52:57.602Z,56.30
2019-03-26T05:53:28.868Z,55.97
2019-03-26T05:54:00.071Z,55.78
2019-03-26T05:54:31.275Z,55.83
2019-03-26T05:55:02.508Z,55.82
2019-03-26T05:55:33.711Z,55.81
2019-03-26T05:56:04.905Z,55.51
2019-03-26T05:56:36.110Z,55.76
2019-03-26T05:57:07.299Z,55.73
2019-03-26T05:57:38.499Z,55.51
2019-03-26T05:58:09.714Z,55.55
2019-03-26T05:58:40.947Z,55.70
2019-03-26T05:59:12.152Z,55.11
2019-03-26T05:59:44.348Z,55.34
2019-03-26T06:00:15.568Z,55.54
2019-03-26T06:00:46.844Z,55.41
2019-03-26T06:01:18.047Z,55.26
2019-03-26T06:01:49.259Z,54.87
2019-03-26T06:02:20.518Z,54.95
2019-03-26T06:02:51.736Z,55.22
2019-03-26T06:03:22.954Z,55.30
2019-03-26T06:03:54.158Z,54.99
2019-03-26T06:04:25.362Z,54.94
2019-03-26T06:04:56.606Z,54.74
2019-03-26T06:05:27.808Z,53.97
2019-03-26T06:05:59.015Z,54.34
2019-03-26T06:06:30.222Z,54.57
2019-03-26T06:07:05.125Z,54.48
2019-03-26T06:07:34.389Z,54.30
2019-03-26T06:08:05.575Z,54.14
2019-03-26T06:08:36.785Z,53.99
2019-03-26T06:09:07.989Z,53.99
2019-03-26T06:09:39.202Z,54.10
2019-03-26T06:10:10.444Z,53.87
2019-03-26T06:10:41.647Z,53.67
2019-03-26T06:11:12.875Z,52.99
2019-03-26T06:11:44.072Z,52.64
2019-03-26T06:12:15.284Z,52.25
2019-03-26T06:12:46.493Z,52.14
2019-03-26T06:13:17.699Z,51.16
2019-03-26T06:13:48.951Z,51.33
2019-03-26T06:14:20.163Z,51.49
2019-03-26T06:14:51.385Z,51.02
2019-03-26T06:15:22.589Z,51.02
2019-03-26T06:15:53.797Z,51.61
2019-03-26T06:16:37.659Z,51.88
2019-03-26T06:16:57.942Z,51.34
2019-03-26T06:17:29.146Z,50.65
2019-03-26T06:18:00.350Z,48.99
2019-03-26T06:18:31.547Z,49.64
2019-03-26T06:19:02.807Z,49.93
2019-03-26T06:19:34.029Z,49.62
2019-03-26T06:20:05.265Z,49.47
2019-03-26T06:20:36.463Z,49.57
2019-03-26T06:21:07.701Z,49.72
2019-03-26T06:21:38.956Z,49.34
2019-03-26T06:22:10.155Z,49.51
2019-03-26T06:22:41.364Z,49.21
2019-03-26T06:23:12.579Z,48.68
2019-03-26T06:23:43.790Z,48.92
2019-03-26T06:24:15.003Z,49.56
2019-03-26T06:24:46.223Z,48.83
2019-03-26T06:25:17.433Z,48.97
2019-03-26T06:25:48.626Z,48.79
2019-03-26T06:26:19.898Z,48.86
2019-03-26T06:26:51.122Z,48.80
2019-03-26T06:27:22.348Z,48.58
2019-03-26T06:27:53.558Z,48.39
2019-03-26T06:28:24.765Z,48.45
2019-03-26T06:28:55.973Z,48.80
2019-03-26T06:29:27.176Z,47.83
2019-03-26T06:29:58.380Z,47.33
2019-03-26T06:30:29.596Z,47.55
2019-03-26T06:31:00.812Z,47.62
2019-03-26T06:31:32.066Z,47.44
2019-03-26T06:32:03.274Z,47.78
2019-03-26T06:32:34.525Z,47.94
2019-03-26T06:33:05.732Z,48.25
2019-03-26T06:33:36.942Z,48.44
2019-03-26T06:34:10.539Z,47.57
2019-03-26T06:34:41.152Z,46.80
2019-03-26T06:35:12.370Z,46.60
2019-03-26T06:35:43.578Z,46.89
2019-03-26T06:36:14.787Z,47.19
2019-03-26T06:36:46.034Z,46.71
2019-03-26T06:37:18.236Z,46.57
2019-03-26T06:37:49.622Z,46.35
2019-03-26T06:38:20.827Z,46.51
2019-03-26T06:38:52.031Z,46.61
2019-03-26T06:39:23.232Z,45.97
2019-03-26T06:39:54.454Z,46.19
2019-03-26T06:40:25.644Z,46.18
2019-03-26T06:40:56.906Z,45.86
2019-03-26T06:41:28.105Z,45.84
2019-03-26T06:41:59.308Z,45.98
2019-03-26T06:42:30.534Z,45.97
2019-03-26T06:43:01.757Z,46.07